Time;durP1;ratioP1;P1;durP2;ratioP2;P2;SDS_P1;SDS_P2;PMS_P1;PMS_P2;Temp;Humidity;BMP_temperature;BMP_pressure;BME280_temperature;BME280_humidity;BME280_pressure;Samples;Min_cycle;Max_cycle;Signal;HPM_P1;HPM_P2
2021/11/10 00:00:52;;;;;;;7.75;6.95;;;;;;;4.57;79.95;99538.47;4997563;27;103296;-70
2021/11/10 00:03:22;;;;;;;8.63;7.72;;;;;;;4.64;78.61;99536.47;4992216;28;102891;-70
2021/11/10 00:05:50;;;;;;;9.43;7.95;;;;;;;4.51;78.77;99545.66;4990824;28;103233;-69
2021/11/10 00:08:18;;;;;;;7.30;6.60;;;;;;;4.62;78.77;99543.53;4990288;28;103171;-70
2021/11/10 00:10:46;;;;;;;10.45;9.45;;;;;;;4.21;78.43;99542.31;4993242;28;102813;-69
2021/11/10 00:13:20;;;;;;;9.00;8.10;;;;;;;4.41;78.90;99539.88;4989499;28;102921;-69
2021/11/10 00:15:52;;;;;;;9.63;8.50;;;;;;;4.50;78.19;99538.72;4990586;28;103412;-69
2021/11/10 00:18:22;;;;;;;9.73;8.32;;;;;;;4.36;77.72;99535.72;4991123;28;103438;-70
2021/11/10 00:20:50;;;;;;;11.43;9.47;;;;;;;3.69;79.65;99543.16;4967277;28;103863;-69
2021/11/10 00:23:19;;;;;;;9.38;8.05;;;;;;;4.14;79.93;99534.72;4991940;28;103033;-70
2021/11/10 00:25:47;;;;;;;8.65;7.70;;;;;;;4.31;78.92;99542.88;4971789;28;103369;-70
2021/11/10 00:28:15;;;;;;;8.40;7.43;;;;;;;4.51;78.41;99550.91;4974022;28;104204;-69
2021/11/10 00:30:43;;;;;;;8.20;7.40;;;;;;;4.57;77.63;99550.69;4980414;28;102988;-69
2021/11/10 00:33:14;;;;;;;8.15;7.35;;;;;;;4.62;77.18;99561.84;5001643;28;102707;-69
2021/11/10 00:35:43;;;;;;;10.50;9.40;;;;;;;4.15;77.51;99560.00;4995369;28;103338;-69
2021/11/10 00:38:11;;;;;;;8.93;8.13;;;;;;;4.31;77.89;99554.19;5009817;28;103865;-69
2021/11/10 00:40:40;;;;;;;10.10;8.63;;;;;;;4.36;77.85;99565.34;4998967;28;103034;-68
2021/11/10 00:43:08;;;;;;;11.07;9.40;;;;;;;4.31;78.00;99569.03;5000072;28;103915;-69
2021/11/10 00:45:36;;;;;;;9.52;8.50;;;;;;;4.45;78.26;99556.34;4991773;28;104511;-60
2021/11/10 00:48:04;;;;;;;8.25;7.40;;;;;;;4.54;78.18;99561.25;4968876;28;103057;-60
2021/11/10 00:50:33;;;;;;;9.80;8.60;;;;;;;4.49;78.56;99563.19;4992533;28;103189;-60
2021/11/10 00:53:03;;;;;;;7.82;7.03;;;;;;;4.61;78.64;99567.97;4989418;28;105067;-61
2021/11/10 00:55:31;;;;;;;7.72;6.93;;;;;;;4.67;77.54;99563.41;4992713;28;103276;-61
2021/11/10 00:57:59;;;;;;;12.50;10.30;;;;;;;3.74;79.66;99559.53;4991412;28;103193;-60
2021/11/10 01:00:27;;;;;;;9.70;8.70;;;;;;;3.85;81.45;99567.91;4993236;28;102755;-61
2021/11/10 01:02:56;;;;;;;10.02;8.82;;;;;;;3.84;80.60;99557.50;4974167;28;102905;-60
2021/11/10 01:05:24;;;;;;;9.30;8.33;;;;;;;3.72;81.35;99544.81;4972991;28;104252;-61
2021/11/10 01:07:53;;;;;;;7.90;7.10;;;;;;;4.00;81.48;99545.66;4987406;28;105422;-61
2021/11/10 01:10:22;;;;;;;7.80;7.05;;;;;;;4.24;80.04;99551.84;4991622;28;103077;-61
2021/11/10 01:12:51;;;;;;;7.28;6.45;;;;;;;4.41;79.43;99554.72;4973940;28;103977;-60
2021/11/10 01:15:20;;;;;;;10.27;8.77;;;;;;;4.10;77.11;99555.75;4973967;28;103275;-60
2021/11/10 01:17:50;;;;;;;8.88;7.97;;;;;;;4.08;78.46;99557.56;4971620;28;105214;-60
2021/11/10 01:20:21;;;;;;;7.78;6.97;;;;;;;4.26;77.71;99563.09;4971149;28;102684;-60
2021/11/10 01:22:50;;;;;;;11.38;9.60;;;;;;;3.88;77.29;99557.34;4995424;28;103336;-61
2021/11/10 01:25:18;;;;;;;11.57;9.48;;;;;;;3.81;78.76;99552.38;4993683;28;104019;-60
2021/11/10 01:27:51;;;;;;;11.18;9.95;;;;;;;3.63;78.08;99542.47;4994298;28;103200;-60
2021/11/10 01:30:19;;;;;;;11.52;9.90;;;;;;;3.28;79.57;99549.66;4993533;28;103080;-61
2021/11/10 01:32:49;;;;;;;8.83;7.93;;;;;;;3.53;81.40;99552.38;4993060;28;102745;-60
2021/11/10 01:35:18;;;;;;;8.83;7.93;;;;;;;3.92;80.06;99555.50;4974789;28;104157;-61
2021/11/10 01:37:47;;;;;;;10.85;9.75;;;;;;;3.74;80.27;99543.00;4974550;28;105093;-60
2021/11/10 01:40:18;;;;;;;12.30;11.00;;;;;;;2.92;83.49;99533.28;4973322;28;102773;-61
2021/11/10 01:42:50;;;;;;;12.35;10.90;;;;;;;3.04;85.18;99536.44;4976857;28;103083;-60
2021/11/10 01:45:22;;;;;;;10.40;9.40;;;;;;;3.17;85.08;99536.03;4973883;28;103299;-60
2021/11/10 01:47:52;;;;;;;10.65;9.65;;;;;;;3.30;83.93;99526.09;4978584;28;103240;-69
2021/11/10 01:50:24;;;;;;;11.60;10.50;;;;;;;2.77;86.70;99518.06;4978324;28;102926;-60
2021/11/10 01:52:52;;;;;;;15.23;11.20;;;;;;;2.69;87.37;99514.81;4981901;28;104106;-60
2021/11/10 01:55:21;;;;;;;13.30;11.23;;;;;;;2.52;87.94;99506.59;4974078;28;105017;-61
2021/11/10 01:57:50;;;;;;;14.77;11.80;;;;;;;2.15;89.55;99505.84;4975160;28;105391;-60
2021/11/10 02:00:26;;;;;;;13.30;11.80;;;;;;;1.89;92.50;99516.91;4972578;28;103338;-60
2021/11/10 02:03:03;;;;;;;13.67;11.17;;;;;;;2.00;93.34;99507.09;4973393;28;102822;-60
2021/11/10 02:05:54;;;;;;;16.00;12.90;;;;;;;1.82;93.28;99501.47;4963163;28;104159;-60
2021/11/10 02:08:34;;;;;;;16.05;12.95;;;;;;;1.87;94.21;99499.63;4990961;28;103142;-61
2021/11/10 02:11:09;;;;;;;12.45;11.10;;;;;;;2.63;91.49;99472.38;4970920;28;102771;-60
2021/11/10 02:13:44;;;;;;;9.75;8.75;;;;;;;3.06;89.85;99477.22;4978477;28;102973;-60
2021/11/10 02:16:14;;;;;;;11.50;10.30;;;;;;;3.09;86.60;99470.13;4967425;28;103927;-69
2021/11/10 02:18:42;;;;;;;12.07;10.80;;;;;;;2.69;88.92;99453.94;4995782;28;103196;-69
2021/11/10 02:21:18;;;;;;;9.50;8.55;;;;;;;3.21;87.93;99459.31;4997249;28;102725;-70
2021/11/10 02:23:49;;;;;;;9.30;8.20;;;;;;;3.54;86.45;99470.44;4970597;28;102859;-69
2021/11/10 02:26:22;;;;;;;9.80;8.80;;;;;;;3.51;83.41;99470.56;4994246;28;104109;-69
2021/11/10 02:28:50;;;;;;;9.55;8.63;;;;;;;3.60;82.81;99464.19;4995690;28;103259;-60
2021/11/10 02:31:22;;;;;;;11.25;10.13;;;;;;;2.94;83.47;99478.44;4977500;28;103518;-61
2021/11/10 02:33:51;;;;;;;15.35;12.00;;;;;;;1.89;88.36;99469.16;4973198;28;104124;-60
2021/11/10 02:36:20;;;;;;;13.53;11.17;;;;;;;1.67;90.97;99467.09;4973009;28;104839;-60
2021/11/10 02:38:51;;;;;;;10.70;9.60;;;;;;;2.48;90.79;99459.75;4971086;28;104363;-60
2021/11/10 02:41:19;;;;;;;10.23;8.98;;;;;;;2.95;88.47;99455.78;4974299;28;103543;-60
2021/11/10 02:43:47;;;;;;;8.98;8.07;;;;;;;3.31;86.73;99468.56;4996889;28;104019;-60
2021/11/10 02:46:16;;;;;;;9.47;8.53;;;;;;;3.56;85.40;99463.44;4993419;28;104123;-60
2021/11/10 02:48:44;;;;;;;10.60;9.60;;;;;;;3.43;82.66;99468.19;4992405;28;103295;-60
2021/11/10 02:51:12;;;;;;;13.83;10.77;;;;;;;2.99;82.84;99471.31;4967871;28;103973;-61
2021/11/10 02:53:41;;;;;;;12.60;10.77;;;;;;;3.08;85.36;99475.41;4965097;28;104307;-61
2021/11/10 02:56:10;;;;;;;11.15;10.00;;;;;;;3.43;84.11;99469.94;4996839;28;103341;-60
2021/11/10 02:58:38;;;;;;;14.95;12.50;;;;;;;2.86;83.42;99462.13;4986001;28;103200;-69
2021/11/10 03:01:08;;;;;;;11.17;9.90;;;;;;;2.99;86.28;99460.88;4970224;28;103556;-60
2021/11/10 03:03:36;;;;;;;10.90;9.80;;;;;;;3.28;85.39;99460.00;4975970;28;104089;-60
2021/11/10 03:06:04;;;;;;;13.18;10.70;;;;;;;3.19;84.70;99455.91;4971248;28;104630;-60
2021/11/10 03:08:38;;;;;;;9.77;8.77;;;;;;;3.51;83.65;99460.09;4976518;28;103386;-69
2021/11/10 03:11:13;;;;;;;11.00;9.77;;;;;;;3.60;82.21;99459.81;4969489;28;102838;-60
2021/11/10 03:13:42;;;;;;;10.60;9.60;;;;;;;3.44;82.66;99458.59;4968934;28;104280;-60
2021/11/10 03:16:11;;;;;;;12.13;10.75;;;;;;;3.64;82.54;99456.22;4969434;28;105313;-60
2021/11/10 03:18:41;;;;;;;12.97;11.53;;;;;;;3.34;82.47;99446.75;4989882;28;103239;-60
2021/11/10 03:21:10;;;;;;;14.23;12.83;;;;;;;2.90;84.69;99441.09;4967365;28;102931;-60
2021/11/10 03:23:38;;;;;;;16.23;12.63;;;;;;;2.88;85.32;99442.91;4994154;28;103835;-60
2021/11/10 03:26:09;;;;;;;10.32;9.25;;;;;;;3.44;84.27;99442.94;4972738;28;104355;-60
2021/11/10 03:28:40;;;;;;;10.38;8.95;;;;;;;3.59;82.77;99442.44;4971540;28;103142;-60
2021/11/10 03:31:08;;;;;;;12.85;11.27;;;;;;;3.36;80.01;99447.53;4987207;28;104005;-60
2021/11/10 03:33:39;;;;;;;15.00;12.50;;;;;;;2.62;82.84;99449.78;4966893;28;104084;-60
2021/11/10 03:36:07;;;;;;;14.02;12.13;;;;;;;2.65;85.85;99461.00;4972469;28;103353;-60
2021/11/10 03:38:38;;;;;;;12.30;10.73;;;;;;;3.02;85.02;99458.16;4973902;28;103214;-60
2021/11/10 03:41:09;;;;;;;13.20;11.85;;;;;;;3.05;84.79;99454.59;4990373;28;102809;-60
2021/11/10 03:43:37;;;;;;;14.27;11.98;;;;;;;3.23;85.10;99454.88;4970186;28;104348;-60
2021/11/10 03:46:07;;;;;;;13.32;11.75;;;;;;;3.36;84.96;99456.25;4964006;28;103410;-61
2021/11/10 03:48:37;;;;;;;14.07;12.68;;;;;;;3.20;85.93;99446.31;4979125;28;103448;-60
2021/11/10 03:51:05;;;;;;;14.98;13.43;;;;;;;3.14;86.03;99451.72;4971992;28;102852;-60
2021/11/10 03:53:37;;;;;;;12.70;11.43;;;;;;;3.41;87.00;99463.91;4986982;28;102962;-61
2021/11/10 03:56:05;;;;;;;14.30;12.77;;;;;;;3.41;85.99;99458.69;4967226;28;104136;-60
2021/11/10 03:58:34;;;;;;;12.77;11.50;;;;;;;3.53;86.17;99449.63;4973526;28;104442;-60
2021/11/10 04:01:03;;;;;;;13.63;12.23;;;;;;;3.50;85.71;99459.28;4994178;28;102705;-60
2021/11/10 04:03:37;;;;;;;13.57;12.20;;;;;;;3.66;85.52;99467.47;4969695;28;103269;-70
2021/11/10 04:06:05;;;;;;;14.55;12.00;;;;;;;3.76;84.21;99463.63;4977738;28;104904;-68
2021/11/10 04:08:36;;;;;;;11.85;10.65;;;;;;;3.84;84.54;99461.66;4977186;28;103200;-69
2021/11/10 04:11:05;;;;;;;11.80;10.70;;;;;;;3.97;83.20;99465.53;4975960;28;102933;-70
2021/11/10 04:13:34;;;;;;;10.70;9.48;;;;;;;4.06;83.02;99460.00;4968125;28;103815;-71
2021/11/10 04:16:02;;;;;;;10.93;9.93;;;;;;;4.06;82.57;99460.00;4970044;28;103953;-69
2021/11/10 04:18:33;;;;;;;15.05;13.52;;;;;;;3.42;83.57;99449.97;4991990;28;103211;-70
2021/11/10 04:21:12;;;;;;;15.18;13.60;;;;;;;3.16;87.35;99457.75;4973041;28;102966;-70
2021/11/10 04:23:41;;;;;;;19.07;15.50;;;;;;;2.85;88.21;99442.16;4976192;28;103220;-69
2021/11/10 04:26:13;;;;;;;15.73;13.63;;;;;;;3.15;88.79;99450.81;4973112;28;103738;-70
2021/11/10 04:28:41;;;;;;;15.38;13.77;;;;;;;3.02;88.19;99450.34;4976155;28;103174;-70
2021/11/10 04:31:09;;;;;;;17.65;15.38;;;;;;;3.05;88.49;99446.78;4966929;28;102869;-70
2021/11/10 04:33:42;;;;;;;14.50;12.88;;;;;;;3.29;87.47;99449.47;4968596;28;103070;-70
2021/11/10 04:36:13;;;;;;;14.27;12.65;;;;;;;3.55;86.19;99456.50;4975353;28;105651;-70
2021/11/10 04:38:43;;;;;;;11.52;10.43;;;;;;;3.80;85.00;99454.78;4970955;28;103255;-70
2021/11/10 04:41:12;;;;;;;11.27;10.18;;;;;;;3.93;83.55;99463.09;4974990;28;103352;-70
2021/11/10 04:43:41;;;;;;;10.90;9.80;;;;;;;4.01;83.15;99467.13;4969208;28;102899;-70
2021/11/10 04:46:12;;;;;;;14.18;12.77;;;;;;;3.90;82.38;99469.25;4988809;28;103209;-69
2021/11/10 04:48:41;;;;;;;16.70;14.88;;;;;;;3.27;83.46;99455.66;4967440;28;103208;-70
2021/11/10 04:51:12;;;;;;;21.00;16.02;;;;;;;2.64;86.82;99463.66;4991658;28;102947;-70
2021/11/10 04:53:42;;;;;;;15.90;14.20;;;;;;;2.83;89.15;99459.63;4987054;28;103164;-70
2021/11/10 04:56:13;;;;;;;17.27;15.57;;;;;;;2.58;89.11;99458.59;4989844;28;103503;-69
2021/11/10 04:58:42;;;;;;;17.98;14.93;;;;;;;2.54;91.41;99457.84;4969637;28;105116;-70
2021/11/10 05:01:18;;;;;;;12.50;11.20;;;;;;;3.23;88.34;99452.28;4973228;28;102696;-70
2021/11/10 05:03:49;;;;;;;17.60;14.75;;;;;;;2.85;86.92;99443.00;4992371;28;102916;-70
2021/11/10 05:06:19;;;;;;;21.10;16.83;;;;;;;2.18;90.39;99444.06;4973829;28;104259;-70
2021/11/10 05:08:49;;;;;;;20.17;17.38;;;;;;;1.97;92.82;99446.34;4990733;28;103007;-70
2021/11/10 05:11:20;;;;;;;20.30;16.90;;;;;;;2.05;93.03;99452.25;4993819;28;103007;-70
2021/11/10 05:13:48;;;;;;;16.50;14.82;;;;;;;2.43;91.50;99441.63;4970329;28;102740;-70
2021/11/10 05:16:16;;;;;;;18.67;16.67;;;;;;;2.46;89.68;99433.72;4988699;28;103188;-70
2021/11/10 05:18:47;;;;;;;18.13;15.70;;;;;;;2.33;90.70;99434.94;4970965;28;105108;-71
2021/11/10 05:21:24;;;;;;;15.20;13.60;;;;;;;2.98;88.96;99442.63;4975739;28;103112;-70
2021/11/10 05:23:52;;;;;;;15.23;13.63;;;;;;;2.96;87.17;99442.69;4967804;28;103303;-70
2021/11/10 05:26:20;;;;;;;14.80;13.20;;;;;;;3.08;85.62;99438.84;4989645;28;104087;-70
2021/11/10 05:28:50;;;;;;;12.93;11.63;;;;;;;3.29;84.45;99443.41;4990837;28;104199;-70
2021/11/10 05:31:18;;;;;;;21.02;18.73;;;;;;;3.16;83.26;99455.13;4971397;28;103318;-69
2021/11/10 05:33:46;;;;;;;20.00;17.90;;;;;;;3.27;82.30;99453.91;4990967;28;102860;-70
2021/11/10 05:36:17;;;;;;;15.85;14.25;;;;;;;3.34;82.21;99460.63;4989336;28;103264;-71
2021/11/10 05:38:47;;;;;;;15.27;13.68;;;;;;;3.50;81.19;99468.84;4989232;28;103113;-71
2021/11/10 05:41:15;;;;;;;21.05;18.45;;;;;;;2.84;80.98;99467.38;4993153;28;102689;-70
2021/11/10 05:43:44;;;;;;;18.07;15.53;;;;;;;3.10;82.30;99473.59;4987774;28;103753;-70
2021/11/10 05:46:12;;;;;;;17.00;14.57;;;;;;;3.20;81.56;99469.81;4992513;28;103493;-70
2021/11/10 05:48:40;;;;;;;15.75;14.07;;;;;;;3.09;81.96;99477.13;4990113;28;103169;-61
2021/11/10 05:51:09;;;;;;;19.73;16.38;;;;;;;3.06;80.77;99477.22;4989631;28;102875;-61
2021/11/10 05:53:38;;;;;;;16.73;13.47;;;;;;;3.17;82.03;99475.13;4988986;28;103788;-61
2021/11/10 05:56:07;;;;;;;17.30;15.52;;;;;;;2.83;82.35;99470.91;4988621;28;103303;-61
2021/11/10 05:58:38;;;;;;;18.33;16.23;;;;;;;2.71;83.36;99467.78;4969397;28;103344;-61
2021/11/10 06:01:06;;;;;;;21.42;18.40;;;;;;;1.87;87.19;99464.00;4994556;28;102690;-61
2021/11/10 06:03:34;;;;;;;17.23;14.80;;;;;;;2.28;88.33;99455.06;4988719;28;104000;-61
2021/11/10 06:06:02;;;;;;;15.32;13.55;;;;;;;2.68;86.47;99445.25;4994442;28;103308;-61
2021/11/10 06:08:31;;;;;;;19.15;16.25;;;;;;;2.40;85.50;99449.53;4995676;28;103276;-61
2021/11/10 06:11:09;;;;;;;19.08;16.13;;;;;;;2.03;88.16;99461.84;4986472;28;102680;-61
2021/11/10 06:13:40;;;;;;;13.07;11.77;;;;;;;2.50;87.51;99466.63;4988536;28;102820;-70
2021/11/10 06:16:09;;;;;;;14.90;13.48;;;;;;;2.72;86.14;99465.13;5008461;28;103237;-70
2021/11/10 06:18:37;;;;;;;18.80;16.13;;;;;;;2.22;86.49;99466.53;5009076;28;103546;-70
2021/11/10 06:21:05;;;;;;;16.45;14.10;;;;;;;2.24;88.01;99469.09;5012372;28;102766;-70
2021/11/10 06:23:34;;;;;;;16.40;14.25;;;;;;;2.32;88.21;99467.16;5011728;28;102756;-71
2021/11/10 06:26:02;;;;;;;15.13;13.52;;;;;;;2.50;87.77;99466.63;5000683;28;104351;-70
2021/11/10 06:28:34;;;;;;;15.05;13.40;;;;;;;2.75;86.62;99461.59;4984057;28;103739;-70
2021/11/10 06:31:02;;;;;;;16.80;15.00;;;;;;;2.52;86.95;99461.38;4984400;28;103065;-70
2021/11/10 06:33:30;;;;;;;18.23;15.18;;;;;;;2.46;87.49;99461.56;4979035;28;103591;-70
2021/11/10 06:35:58;;;;;;;18.92;15.32;;;;;;;2.37;88.00;99457.44;4985298;28;103329;-70
2021/11/10 06:38:27;;;;;;;16.67;13.87;;;;;;;2.57;88.84;99467.31;4973098;28;103316;-69
2021/11/10 06:40:55;;;;;;;14.00;12.63;;;;;;;2.96;87.20;99460.09;4978738;28;102724;-70
2021/11/10 06:43:25;;;;;;;17.20;15.40;;;;;;;2.72;85.99;99464.28;4977439;28;104569;-69
2021/11/10 06:45:56;;;;;;;14.65;13.02;;;;;;;2.90;86.91;99476.78;4992183;28;103397;-69
2021/11/10 06:48:24;;;;;;;17.17;14.97;;;;;;;2.70;86.61;99479.97;4990469;28;103296;-71
2021/11/10 06:50:52;;;;;;;17.70;15.35;;;;;;;2.83;87.67;99483.09;4979750;28;103171;-69
2021/11/10 06:53:21;;;;;;;20.10;16.83;;;;;;;2.75;87.89;99487.69;4999224;28;102685;-69
2021/11/10 06:55:49;;;;;;;18.95;15.52;;;;;;;2.79;88.65;99477.09;5006767;28;103230;-67
2021/11/10 06:58:17;;;;;;;20.50;17.92;;;;;;;2.50;90.52;99477.06;4996717;28;103240;-69
2021/11/10 07:00:45;;;;;;;21.30;17.77;;;;;;;2.48;91.09;99473.66;5000599;28;103247;-70
2021/11/10 07:03:36;;;;;;;22.02;17.38;;;;;;;2.80;89.46;99476.22;4999995;28;103203;-67
2021/11/10 07:06:43;;;;;;;23.73;17.77;;;;;;;3.09;88.62;99479.75;4978092;28;103036;-69
2021/11/10 07:09:13;;;;;;;19.73;16.85;;;;;;;3.03;89.38;99477.31;4975873;28;103073;-68
2021/11/10 07:11:43;;;;;;;22.00;17.23;;;;;;;3.13;88.95;99479.59;4991144;28;104019;-69
2021/11/10 07:14:14;;;;;;;18.85;16.80;;;;;;;3.32;88.33;99485.94;4999471;28;103858;-69
2021/11/10 07:16:42;;;;;;;18.55;15.50;;;;;;;3.47;87.77;99489.84;5002950;28;103332;-69
2021/11/10 07:19:11;;;;;;;18.17;15.20;;;;;;;3.87;86.10;99487.69;5004681;28;103232;-69
2021/11/10 07:21:39;;;;;;;14.63;13.15;;;;;;;4.12;85.01;99500.78;5002060;28;102599;-69
2021/11/10 07:24:08;;;;;;;13.82;12.40;;;;;;;4.42;83.62;99493.63;4998631;28;103968;-69
2021/11/10 07:26:36;;;;;;;12.95;11.65;;;;;;;4.64;82.72;99491.97;4980644;28;104159;-69
2021/11/10 07:29:04;;;;;;;18.10;14.55;;;;;;;4.76;81.01;99502.00;4982301;28;103352;-69
2021/11/10 07:31:33;;;;;;;15.02;13.25;;;;;;;4.82;81.33;99493.94;5002897;28;102688;-69
2021/11/10 07:34:02;;;;;;;14.77;13.23;;;;;;;4.72;82.12;99486.44;4980954;28;102927;-69
2021/11/10 07:36:31;;;;;;;19.10;15.52;;;;;;;4.55;81.01;99487.06;4986817;28;103325;-69
2021/11/10 07:38:59;;;;;;;15.77;14.03;;;;;;;4.81;82.10;99491.34;5000724;28;103194;-69
2021/11/10 07:41:30;;;;;;;21.05;17.27;;;;;;;3.72;85.41;99495.16;5005093;28;102964;-69
2021/11/10 07:43:59;;;;;;;15.90;14.27;;;;;;;4.67;84.75;99494.47;5003042;28;102713;-69
2021/11/10 07:46:30;;;;;;;19.45;15.60;;;;;;;4.80;83.84;99495.72;4983961;28;103256;-70
2021/11/10 07:49:01;;;;;;;17.27;15.47;;;;;;;4.95;82.66;99494.31;5002954;28;103152;-70
2021/11/10 07:51:29;;;;;;;16.43;14.63;;;;;;;5.40;80.52;99502.19;5001951;28;102851;-70
2021/11/10 07:54:01;;;;;;;17.70;15.80;;;;;;;5.26;81.06;99495.75;5000257;28;102919;-71
2021/11/10 07:56:29;;;;;;;14.73;13.27;;;;;;;5.84;81.56;99485.56;5001996;28;103303;-71
2021/11/10 07:58:57;;;;;;;14.87;13.37;;;;;;;6.13;78.84;99493.13;4981545;28;103428;-71
2021/11/10 08:01:31;;;;;;;14.93;12.80;;;;;;;6.30;78.84;99482.78;5000534;28;102908;-71
2021/11/10 08:04:02;;;;;;;16.83;13.90;;;;;;;6.39;77.50;99477.13;4986472;28;104000;-70
2021/11/10 08:06:31;;;;;;;17.02;14.20;;;;;;;6.25;77.79;99474.25;4986013;28;103380;-71
2021/11/10 08:09:00;;;;;;;15.85;13.13;;;;;;;6.43;78.11;99489.19;4982720;28;103744;-70
2021/11/10 08:11:28;;;;;;;13.73;12.33;;;;;;;6.79;77.05;99497.22;4970368;28;102924;-70
2021/11/10 08:14:00;;;;;;;15.13;13.52;;;;;;;6.83;75.97;99482.19;4997256;28;103013;-70
2021/11/10 08:16:28;;;;;;;14.30;12.73;;;;;;;7.18;75.32;99497.22;4998117;28;102807;-70
2021/11/10 08:18:56;;;;;;;15.10;13.07;;;;;;;7.40;75.16;99505.81;5000673;28;103259;-70
2021/11/10 08:21:28;;;;;;;15.50;13.70;;;;;;;7.53;73.72;99480.63;5001103;28;102846;-70
2021/11/10 08:23:56;;;;;;;18.52;15.07;;;;;;;6.70;76.26;99478.41;4996655;28;102646;-70
2021/11/10 08:26:26;;;;;;;15.65;13.10;;;;;;;6.83;75.71;99479.56;4976751;28;104177;-70
2021/11/10 08:28:54;;;;;;;13.20;11.80;;;;;;;7.32;75.15;99492.19;4990622;28;103008;-69
2021/11/10 08:31:22;;;;;;;16.55;14.55;;;;;;;6.95;75.58;99495.63;4999740;28;102744;-70
2021/11/10 08:33:50;;;;;;;16.17;14.40;;;;;;;7.01;74.75;99502.38;4965445;28;104320;-70
2021/11/10 08:36:18;;;;;;;15.65;14.15;;;;;;;6.96;75.47;99499.13;4995630;28;103369;-70
2021/11/10 08:38:46;;;;;;;14.80;13.00;;;;;;;7.29;74.50;99487.06;4993130;28;103200;-70
2021/11/10 08:41:16;;;;;;;17.03;14.40;;;;;;;6.94;75.95;99496.53;5007724;28;103040;-70
2021/11/10 08:43:45;;;;;;;16.05;14.38;;;;;;;7.09;76.29;99502.88;4979580;28;102858;-70
2021/11/10 08:46:14;;;;;;;15.77;14.05;;;;;;;7.11;75.95;99508.91;4978427;28;103418;-68
2021/11/10 08:48:42;;;;;;;16.33;14.07;;;;;;;7.23;74.99;99512.75;4982735;28;103220;-68
2021/11/10 08:51:10;;;;;;;16.55;14.80;;;;;;;7.23;74.86;99504.88;4999504;28;103080;-68
2021/11/10 08:53:38;;;;;;;20.50;15.00;;;;;;;7.11;75.30;99498.41;4998280;28;103073;-68
2021/11/10 08:56:07;;;;;;;14.60;11.13;;;;;;;7.02;77.57;99503.25;4987275;28;104017;-68
2021/11/10 08:58:36;;;;;;;17.40;12.27;;;;;;;7.01;76.34;99507.66;4969164;28;103335;-68
2021/11/10 09:01:05;;;;;;;19.17;13.23;;;;;;;6.42;77.86;99497.16;4996865;28;102649;-68
2021/11/10 09:03:34;;;;;;;20.40;13.17;;;;;;;6.51;79.48;99495.91;4997672;28;102810;-68
2021/11/10 09:06:02;;;;;;;18.30;14.87;;;;;;;6.33;79.44;99513.28;4985304;28;104328;-68
2021/11/10 09:08:32;;;;;;;19.57;13.43;;;;;;;6.11;80.04;99510.72;4995535;28;104675;-68
2021/11/10 09:11:01;;;;;;;16.57;12.83;;;;;;;6.26;79.55;99512.66;4990744;28;102653;-68
2021/11/10 09:13:30;;;;;;;14.73;12.40;;;;;;;6.15;79.67;99508.78;5003253;28;102721;-68
2021/11/10 09:15:59;;;;;;;18.90;13.70;;;;;;;6.13;80.20;99506.25;4991283;28;102909;-68
2021/11/10 09:18:29;;;;;;;18.87;12.47;;;;;;;6.17;80.51;99509.59;4978091;28;103267;-67
2021/11/10 09:20:57;;;;;;;19.40;13.93;;;;;;;5.99;80.57;99524.31;4979128;28;103352;-68
2021/11/10 09:23:25;;;;;;;15.37;12.70;;;;;;;6.05;81.25;99531.94;4997904;28;102771;-68
2021/11/10 09:25:53;;;;;;;20.47;14.73;;;;;;;6.15;80.09;99522.75;4994290;28;103245;-68
2021/11/10 09:28:22;;;;;;;16.70;13.47;;;;;;;6.10;80.81;99521.25;4977737;28;103217;-68
2021/11/10 09:30:54;;;;;;;15.97;12.33;;;;;;;6.18;80.98;99522.63;4979229;28;102671;-68
2021/11/10 09:33:23;;;;;;;23.40;15.07;;;;;;;6.11;79.37;99513.34;5007057;27;103133;-68
2021/11/10 09:35:55;;;;;;;18.07;13.90;;;;;;;5.90;81.11;99514.19;5000196;28;103179;-68
2021/11/10 09:38:24;;;;;;;18.23;13.50;;;;;;;6.00;81.89;99499.81;4989069;28;102991;-68
2021/11/10 09:40:53;;;;;;;16.07;12.60;;;;;;;6.23;80.07;99497.06;5007399;28;103214;-68
2021/11/10 09:43:21;;;;;;;14.40;11.43;;;;;;;6.51;79.23;99495.91;5004070;28;102641;-68
2021/11/10 09:45:49;;;;;;;14.83;11.40;;;;;;;6.71;78.44;99503.75;5007540;28;103240;-68
2021/11/10 09:48:18;;;;;;;14.30;11.60;;;;;;;6.63;78.98;99505.84;5003696;28;103305;-68
2021/11/10 09:50:48;;;;;;;21.33;14.80;;;;;;;6.59;79.10;99507.78;5000996;28;103056;-68
2021/11/10 09:53:21;;;;;;;19.57;16.10;;;;;;;6.47;79.97;99510.06;4992692;28;102906;-68
2021/11/10 09:55:49;;;;;;;17.83;14.73;;;;;;;6.61;78.91;99511.19;4995652;28;103219;-67
2021/11/10 09:58:17;;;;;;;23.40;16.07;;;;;;;6.70;78.93;99505.53;4994090;28;102960;-68
2021/11/10 10:00:51;;;;;;;22.27;16.90;;;;;;;6.76;79.61;99517.53;4978102;28;103080;-66
2021/11/10 10:03:20;;;;;;;25.30;16.47;;;;;;;6.27;80.30;99509.16;4996114;28;102655;-68
2021/11/10 10:05:51;;;;;;;17.60;14.50;;;;;;;6.63;79.87;99496.19;5001634;28;103275;-68
2021/11/10 10:08:23;;;;;;;16.53;14.30;;;;;;;6.73;79.72;99491.41;4992150;28;103179;-67
2021/11/10 10:10:51;;;;;;;17.40;14.13;;;;;;;6.89;78.61;99487.16;4988504;28;103146;-67
2021/11/10 10:13:22;;;;;;;22.57;16.60;;;;;;;6.62;78.63;99488.41;4962158;28;102859;-68
2021/11/10 10:15:53;;;;;;;14.13;12.33;;;;;;;6.71;80.03;99482.75;4977684;28;103109;-62
2021/11/10 10:18:23;;;;;;;16.53;13.70;;;;;;;6.95;77.98;99484.28;4989421;28;103280;-62
2021/11/10 10:20:54;;;;;;;21.23;15.80;;;;;;;6.92;78.46;99489.66;4985465;28;102886;-62
2021/11/10 10:23:27;;;;;;;16.23;14.53;;;;;;;6.92;77.96;99482.63;4979750;28;102832;-62
2021/11/10 10:26:00;;;;;;;20.07;16.00;;;;;;;6.80;78.58;99492.81;4994536;28;103290;-62
2021/11/10 10:28:30;;;;;;;17.83;13.23;;;;;;;6.83;79.39;99492.69;4998989;28;103195;-62
2021/11/10 10:31:01;;;;;;;19.40;14.83;;;;;;;6.85;78.01;99490.84;5000011;28;102547;-62
2021/11/10 10:33:34;;;;;;;17.53;15.60;;;;;;;6.82;78.33;99485.75;4997590;28;102814;-61
2021/11/10 10:36:07;;;;;;;20.77;15.03;;;;;;;6.38;80.51;99482.44;4988114;28;104896;-62
2021/11/10 10:38:44;;;;;;;21.03;16.20;;;;;;;6.59;78.45;99483.28;4969826;28;103289;-61
2021/11/10 10:41:13;;;;;;;19.23;16.20;;;;;;;6.43;79.79;99465.56;4979031;28;102774;-62
2021/11/10 10:43:43;;;;;;;15.80;14.10;;;;;;;7.17;78.92;99466.59;4976615;28;103922;-61
2021/11/10 10:46:11;;;;;;;17.57;12.70;;;;;;;7.44;77.73;99464.44;4989672;28;104172;-62
2021/11/10 10:48:41;;;;;;;24.27;14.57;;;;;;;7.40;77.52;99452.38;4985512;28;103386;-62
2021/11/10 10:51:12;;;;;;;21.57;16.37;;;;;;;7.42;76.81;99458.41;4996920;28;102663;-62
2021/11/10 10:53:44;;;;;;;17.67;15.40;;;;;;;7.45;76.60;99455.63;4995891;28;102681;-62
2021/11/10 10:56:18;;;;;;;17.30;14.47;;;;;;;7.51;76.44;99464.09;4969369;28;103818;-62
2021/11/10 10:58:47;;;;;;;16.13;14.20;;;;;;;7.82;76.54;99459.97;5000404;28;103035;-62
2021/11/10 11:01:25;;;;;;;20.20;15.70;;;;;;;7.74;75.08;99446.34;4974831;28;103273;-62
2021/11/10 11:03:59;;;;;;;17.73;15.17;;;;;;;7.85;75.52;99451.94;4991722;28;102877;-62
2021/11/10 11:06:31;;;;;;;;;;;;;;;8.12;75.31;99455.81;5003285;28;103226;-62
2021/11/10 11:09:09;;;;;;;;;;;;;;;8.21;75.34;99452.72;4979294;28;103780;-63
2021/11/10 11:11:43;;;;;;;;;;;;;;;7.83;75.26;99445.91;4994082;28;102701;-63
2021/11/10 11:14:26;;;;;;;;;;;;;;;8.08;75.02;99431.41;5001818;28;103695;-62
2021/11/10 11:17:04;;;;;;;;;;;;;;;7.90;76.11;99436.75;5009634;28;103984;-62
2021/11/10 11:19:36;;;;;;;;;;;;;;;8.26;75.80;99432.25;4999353;28;103307;-62
2021/11/10 11:22:06;;;;;;;;;;;;;;;8.37;74.74;99443.13;4994004;28;102804;-62
2021/11/10 11:24:36;;;;;;;;;;;;;;;8.53;73.99;99448.47;4999432;28;103131;-62
2021/11/10 11:27:28;;;;;;;;;;;;;;;8.02;74.52;99451.94;4995608;28;103319;-62
2021/11/10 11:30:00;;;;;;;;;;;;;;;9.03;73.08;99451.03;4993100;28;103207;-62
2021/11/10 11:32:31;;;;;;;;;;;;;;;9.40;71.13;99436.69;4979002;28;103402;-62
2021/11/10 11:35:06;;;;;;;;;;;;;;;9.26;69.79;99440.09;4992559;28;103065;-62
2021/11/10 11:37:34;;;;;;;;;;;;;;;9.27;71.79;99425.94;4987460;28;103371;-63